Time;durP1;ratioP1;P1;durP2;ratioP2;P2;SDS_P1;SDS_P2;PMS_P1;PMS_P2;Temp;Humidity;BMP_temperature;BMP_pressure;BME280_temperature;BME280_humidity;BME280_pressure;Samples;Min_cycle;Max_cycle;Signal;HPM_P1;HPM_P2
2023/08/07 00:01:22;;;;;;;7.18;2.40;;;;;;;14.86;77.13;101264.88;5070615;28;20032;-77
2023/08/07 00:03:47;;;;;;;12.13;3.40;;;;;;;14.88;77.01;101262.63;5070474;28;20012;-77
2023/08/07 00:06:13;;;;;;;11.20;2.58;;;;;;;14.86;77.01;101268.50;5072419;28;20094;-77
2023/08/07 00:08:38;;;;;;;9.68;2.83;;;;;;;14.83;76.68;101269.03;5065296;28;20484;-77
2023/08/07 00:11:05;;;;;;;9.38;3.10;;;;;;;14.88;76.75;101265.44;5072496;28;20032;-77
2023/08/07 00:13:30;;;;;;;11.70;3.20;;;;;;;14.84;76.54;101273.50;5073123;28;20103;-77
2023/08/07 00:15:56;;;;;;;11.45;3.05;;;;;;;14.86;76.65;101273.25;5070223;28;20123;-77
2023/08/07 00:18:21;;;;;;;13.07;3.10;;;;;;;14.88;76.51;101277.44;5068147;28;20036;-77
2023/08/07 00:20:46;;;;;;;10.05;3.20;;;;;;;14.88;76.21;101283.03;5061890;28;20040;-77
2023/08/07 00:23:11;;;;;;;9.00;2.92;;;;;;;14.90;76.31;101292.00;5072843;28;20032;-77
2023/08/07 00:25:37;;;;;;;7.93;2.58;;;;;;;14.93;76.96;101280.28;5066971;28;20082;-77
2023/08/07 00:28:02;;;;;;;9.23;2.75;;;;;;;14.88;77.67;101283.03;5071578;28;20033;-77
2023/08/07 00:30:28;;;;;;;8.32;3.33;;;;;;;14.83;78.13;101285.81;5059816;28;20448;-77
2023/08/07 00:32:53;;;;;;;8.73;2.90;;;;;;;14.84;78.13;101303.41;5054266;28;20657;-76
2023/08/07 00:35:18;;;;;;;10.52;2.80;;;;;;;14.83;78.46;101296.16;5071604;28;20101;-77
2023/08/07 00:37:44;;;;;;;8.50;2.50;;;;;;;14.79;78.59;101287.47;5070204;28;20044;-77
2023/08/07 00:40:10;;;;;;;7.15;2.75;;;;;;;14.84;78.24;101283.84;5070980;28;20035;-77
2023/08/07 00:42:35;;;;;;;8.05;2.50;;;;;;;14.81;78.49;101285.22;5064256;28;20037;-77
2023/08/07 00:45:01;;;;;;;6.60;2.10;;;;;;;14.73;77.99;101289.38;5059744;28;20024;-77
2023/08/07 00:47:26;;;;;;;8.68;2.83;;;;;;;14.77;78.12;101295.25;5069290;28;20021;-77
2023/08/07 00:49:52;;;;;;;7.78;2.30;;;;;;;14.73;78.33;101296.91;5072835;28;20031;-77
2023/08/07 00:52:17;;;;;;;8.55;2.70;;;;;;;14.71;78.12;101302.78;5066896;28;20021;-77
2023/08/07 00:54:43;;;;;;;9.00;2.42;;;;;;;14.75;77.82;101305.88;5062412;28;20033;-76
2023/08/07 00:57:14;;;;;;;14.95;2.45;;;;;;;14.74;77.78;101295.81;5055579;28;20483;-77
2023/08/07 00:59:40;;;;;;;7.80;2.42;;;;;;;14.75;77.84;101299.47;5069334;28;20047;-77
2023/08/07 01:02:06;;;;;;;8.15;2.50;;;;;;;14.70;77.75;101294.69;5072126;28;20025;-77
2023/08/07 01:04:31;;;;;;;8.90;2.63;;;;;;;14.67;77.68;101284.88;5069368;28;20030;-77
2023/08/07 01:06:56;;;;;;;10.32;2.38;;;;;;;14.72;77.94;101290.50;5068869;28;20045;-76
2023/08/07 01:09:22;;;;;;;9.15;2.83;;;;;;;14.71;77.66;101285.19;5058425;28;20029;-77
2023/08/07 01:11:58;;;;;;;9.75;2.50;;;;;;;14.74;78.22;101293.03;5064494;28;20055;-77
2023/08/07 01:14:57;;;;;;;10.98;2.90;;;;;;;14.75;78.01;101294.72;5066102;28;20024;-77
2023/08/07 01:17:23;;;;;;;7.78;2.85;;;;;;;14.72;77.96;101301.66;5068894;28;20048;-77
2023/08/07 01:19:53;;;;;;;11.68;2.67;;;;;;;14.71;78.10;101301.94;5070468;28;20380;-77
2023/08/07 01:22:19;;;;;;;11.88;2.88;;;;;;;14.69;78.03;101301.38;5070004;28;20029;-77
2023/08/07 01:24:49;;;;;;;11.30;3.17;;;;;;;14.67;78.32;101300.81;5069526;28;20476;-77
2023/08/07 01:27:17;;;;;;;9.50;2.92;;;;;;;14.70;78.36;101301.13;5070669;28;20086;-77
2023/08/07 01:29:42;;;;;;;8.05;2.47;;;;;;;14.68;78.42;101305.28;5063970;28;20016;-77
2023/08/07 01:32:13;;;;;;;9.27;2.70;;;;;;;14.73;78.47;101305.28;5070979;28;20037;-76
2023/08/07 01:34:41;;;;;;;7.60;2.58;;;;;;;14.76;78.50;101320.69;5069117;28;20024;-77
2023/08/07 01:37:09;;;;;;;7.47;2.42;;;;;;;14.67;78.60;101311.97;5070332;28;20125;-77
2023/08/07 01:39:35;;;;;;;10.27;2.85;;;;;;;14.70;78.15;101315.09;5068041;28;20059;-77
2023/08/07 01:42:04;;;;;;;10.68;2.92;;;;;;;14.66;78.17;101315.91;5070360;28;20531;-77
2023/08/07 01:44:30;;;;;;;10.02;2.80;;;;;;;14.64;77.71;101318.94;5070396;28;20027;-77
2023/08/07 01:46:56;;;;;;;8.85;2.70;;;;;;;14.64;78.03;101307.75;5069677;28;20379;-77
2023/08/07 01:49:21;;;;;;;11.05;2.83;;;;;;;14.64;77.51;101318.09;5071097;28;20039;-77
2023/08/07 01:51:46;;;;;;;10.13;2.88;;;;;;;14.65;77.58;101311.41;5068163;28;20035;-76
2023/08/07 01:54:11;;;;;;;9.52;2.60;;;;;;;14.67;76.97;101317.56;5067858;28;20028;-77
2023/08/07 01:56:37;;;;;;;6.70;2.67;;;;;;;14.62;76.58;101315.59;5070308;28;20529;-77
2023/08/07 01:59:02;;;;;;;8.23;2.33;;;;;;;14.63;76.83;101320.06;5070528;28;20072;-77
2023/08/07 02:01:27;;;;;;;7.28;2.30;;;;;;;14.65;76.94;101328.16;5066771;28;20056;-77
2023/08/07 02:03:53;;;;;;;13.18;2.97;;;;;;;14.64;76.39;101327.31;5067655;28;20028;-77
2023/08/07 02:06:18;;;;;;;7.82;2.60;;;;;;;14.54;76.96;101329.19;5071362;28;20063;-76
2023/08/07 02:08:43;;;;;;;10.07;3.00;;;;;;;14.55;77.20;101320.56;5070901;28;20036;-77
2023/08/07 02:11:08;;;;;;;7.68;2.45;;;;;;;14.58;76.69;101324.75;5070404;28;20020;-76
2023/08/07 02:13:34;;;;;;;9.00;2.78;;;;;;;14.57;77.01;101331.44;5066019;28;20024;-77
2023/08/07 02:15:59;;;;;;;10.65;2.83;;;;;;;14.57;76.60;101331.44;5070979;28;20041;-76
2023/08/07 02:18:24;;;;;;;10.88;2.80;;;;;;;14.58;76.27;101322.81;5055732;28;20434;-76
2023/08/07 02:20:50;;;;;;;7.63;2.40;;;;;;;14.54;76.98;101335.66;5068769;28;20016;-77
2023/08/07 02:23:15;;;;;;;8.60;2.80;;;;;;;14.57;76.64;101339.84;5068220;28;20154;-77
2023/08/07 02:25:40;;;;;;;7.05;2.70;;;;;;;14.54;76.56;101329.19;5070124;28;20120;-77
2023/08/07 02:28:05;;;;;;;9.07;3.10;;;;;;;14.57;76.36;101329.50;5058856;28;20842;-77
2023/08/07 02:30:31;;;;;;;9.13;2.83;;;;;;;14.58;76.69;101327.53;5067283;28;20037;-77
2023/08/07 02:32:56;;;;;;;9.25;2.90;;;;;;;14.60;76.69;101326.19;5070811;28;20032;-77
2023/08/07 02:35:22;;;;;;;7.63;2.63;;;;;;;14.54;76.86;101321.69;5063251;28;20035;-77
2023/08/07 02:37:47;;;;;;;10.70;2.83;;;;;;;14.60;76.50;101322.53;5067371;28;20068;-77
2023/08/07 02:40:15;;;;;;;9.50;2.97;;;;;;;14.57;76.81;101323.06;5073370;28;20067;-77
2023/08/07 02:42:40;;;;;;;11.93;3.45;;;;;;;14.53;76.85;101319.97;5072849;28;20391;-77
2023/08/07 02:45:06;;;;;;;11.30;3.20;;;;;;;14.55;77.07;101325.31;5072094;28;20115;-77
2023/08/07 02:47:31;;;;;;;9.93;2.67;;;;;;;14.54;77.31;101324.47;5072163;28;20037;-78
2023/08/07 02:49:57;;;;;;;9.52;2.78;;;;;;;14.52;77.44;101314.66;5071461;28;20092;-77
2023/08/07 02:52:22;;;;;;;9.55;3.33;;;;;;;14.53;77.98;101307.97;5074161;28;20361;-77
2023/08/07 02:54:48;;;;;;;11.38;3.30;;;;;;;14.54;77.88;101320.81;5060336;28;20071;-77
2023/08/07 02:57:13;;;;;;;12.88;3.10;;;;;;;14.50;77.84;101320.50;5073650;28;20028;-77
2023/08/07 02:59:38;;;;;;;10.85;2.90;;;;;;;14.48;77.84;101312.38;5072059;28;20028;-77
2023/08/07 03:02:04;;;;;;;14.43;3.53;;;;;;;14.48;78.14;101315.16;5073494;28;20470;-77
2023/08/07 03:04:29;;;;;;;8.25;2.83;;;;;;;14.51;78.43;101319.41;5072791;28;20028;-77
2023/08/07 03:06:54;;;;;;;10.02;2.88;;;;;;;14.54;78.42;101331.97;5072960;28;20393;-77
2023/08/07 03:09:20;;;;;;;10.00;2.97;;;;;;;14.53;78.00;101338.69;5063130;28;20064;-77
2023/08/07 03:11:45;;;;;;;9.68;3.03;;;;;;;14.53;78.54;101339.53;5063913;28;20145;-78
2023/08/07 03:14:10;;;;;;;9.70;2.88;;;;;;;14.57;78.22;101334.25;5071693;28;20021;-78
2023/08/07 03:16:36;;;;;;;11.02;3.35;;;;;;;14.54;78.59;101327.28;5074155;28;20036;-78
2023/08/07 03:19:01;;;;;;;9.10;3.28;;;;;;;14.52;78.14;101325.84;5070381;28;20031;-77
2023/08/07 03:21:26;;;;;;;12.75;3.80;;;;;;;14.53;78.25;101328.34;5072539;28;20020;-77
2023/08/07 03:23:52;;;;;;;12.27;3.42;;;;;;;14.53;77.77;101328.34;5073377;28;20040;-77
2023/08/07 03:26:17;;;;;;;10.25;3.00;;;;;;;14.54;77.93;101318.00;5073416;28;20396;-75
2023/08/07 03:28:46;;;;;;;11.18;2.85;;;;;;;14.52;77.93;101314.66;5070197;28;20033;-74
2023/08/07 03:31:11;;;;;;;10.98;3.28;;;;;;;14.52;77.95;101306.28;5072032;28;20025;-76
2023/08/07 03:33:36;;;;;;;9.98;3.30;;;;;;;14.51;77.90;101304.63;5071183;28;20035;-76
2023/08/07 03:36:02;;;;;;;8.10;3.00;;;;;;;14.51;77.97;101308.25;5073068;28;20110;-77
2023/08/07 03:38:27;;;;;;;7.13;3.03;;;;;;;14.53;77.62;101307.97;5072194;28;20713;-76
2023/08/07 03:40:52;;;;;;;12.40;3.20;;;;;;;14.48;77.30;101305.94;5073145;28;20036;-76
2023/08/07 03:43:17;;;;;;;10.45;3.10;;;;;;;14.51;77.19;101304.63;5073820;28;20039;-76
2023/08/07 03:45:43;;;;;;;7.10;2.95;;;;;;;14.49;77.29;101311.28;5061746;28;20036;-76
2023/08/07 03:48:08;;;;;;;12.80;3.30;;;;;;;14.50;77.20;101306.53;5069359;28;20119;-76
2023/08/07 03:50:36;;;;;;;8.18;3.30;;;;;;;14.51;77.11;101301.81;5072159;28;20500;-76
2023/08/07 03:53:02;;;;;;;10.35;3.60;;;;;;;14.48;77.11;101308.75;5070891;28;20388;-76
2023/08/07 03:55:27;;;;;;;9.43;3.20;;;;;;;14.52;76.90;101301.53;5072712;28;20025;-76
2023/08/07 03:57:53;;;;;;;6.85;3.13;;;;;;;14.52;77.17;101307.13;5068603;28;20126;-75
2023/08/07 04:00:18;;;;;;;12.68;3.22;;;;;;;14.53;77.03;101311.59;5053929;28;20041;-76
2023/08/07 04:02:44;;;;;;;10.95;3.53;;;;;;;14.50;75.91;101309.31;5058697;28;20040;-76
2023/08/07 04:05:10;;;;;;;9.65;3.38;;;;;;;14.52;76.22;101318.28;5072186;28;20040;-76
2023/08/07 04:07:35;;;;;;;11.95;3.97;;;;;;;14.51;75.88;101318.56;5068275;28;20029;-76
2023/08/07 04:10:01;;;;;;;11.10;3.60;;;;;;;14.49;75.72;101316.88;5070863;28;20031;-76
2023/08/07 04:12:26;;;;;;;12.07;3.05;;;;;;;14.53;75.83;101319.13;5072411;28;20094;-76
2023/08/07 04:14:52;;;;;;;11.43;2.95;;;;;;;14.48;75.30;101319.91;5072202;28;20060;-76
2023/08/07 04:17:17;;;;;;;14.90;3.60;;;;;;;14.51;75.28;101313.00;5064028;28;20076;-77
2023/08/07 04:19:43;;;;;;;10.73;3.55;;;;;;;14.53;75.66;101328.34;5073336;28;20498;-76
2023/08/07 04:22:08;;;;;;;10.70;3.58;;;;;;;14.55;75.60;101325.31;5059538;28;20150;-76
2023/08/07 04:24:33;;;;;;;9.20;3.67;;;;;;;14.54;75.69;101324.47;5052378;28;20031;-76
2023/08/07 04:26:58;;;;;;;13.05;3.05;;;;;;;14.59;75.77;101334.84;5055399;28;20397;-75
2023/08/07 04:29:24;;;;;;;9.57;3.22;;;;;;;14.56;75.59;101332.56;5068923;28;20033;-75
2023/08/07 04:31:49;;;;;;;12.00;4.10;;;;;;;14.55;75.96;101326.16;5069259;28;20093;-75
2023/08/07 04:34:15;;;;;;;13.40;3.40;;;;;;;14.53;75.81;101322.75;5072832;28;20031;-76
2023/08/07 04:36:40;;;;;;;13.70;3.75;;;;;;;14.56;75.72;101335.38;5070867;28;20033;-76
2023/08/07 04:39:05;;;;;;;16.05;3.47;;;;;;;14.54;75.91;101330.06;5067513;28;20059;-76
2023/08/07 04:41:30;;;;;;;7.53;3.10;;;;;;;14.59;75.85;101337.63;5071066;28;20484;-76
2023/08/07 04:43:56;;;;;;;10.75;3.28;;;;;;;14.53;75.42;101333.94;5070828;28;20025;-76
2023/08/07 04:46:21;;;;;;;7.88;3.17;;;;;;;14.54;75.34;101341.22;5069625;28;20387;-76
2023/08/07 04:48:47;;;;;;;10.68;3.05;;;;;;;14.47;75.31;101344.22;5071376;28;20543;-76
2023/08/07 04:51:13;;;;;;;9.52;3.10;;;;;;;14.51;75.50;101338.13;5070853;28;20024;-75
2023/08/07 04:53:38;;;;;;;9.27;2.83;;;;;;;14.48;75.89;101336.66;5055638;28;20013;-76
2023/08/07 04:56:04;;;;;;;10.25;2.53;;;;;;;14.50;75.65;101340.06;5058728;28;20121;-76
2023/08/07 04:58:29;;;;;;;7.93;3.08;;;;;;;14.49;75.75;101333.63;5051871;28;20052;-75
2023/08/07 05:00:55;;;;;;;6.50;2.72;;;;;;;14.51;75.76;101344.56;5060017;28;20047;-76
2023/08/07 05:03:21;;;;;;;6.93;2.60;;;;;;;14.54;75.43;101340.38;5066387;28;20032;-76
2023/08/07 05:05:46;;;;;;;8.95;2.70;;;;;;;14.55;75.09;101347.66;5067506;28;20044;-76
2023/08/07 05:08:12;;;;;;;5.13;2.17;;;;;;;14.51;74.81;101346.50;5071909;28;20051;-76
2023/08/07 05:10:37;;;;;;;8.38;2.17;;;;;;;14.46;74.62;101350.03;5059600;28;20028;-76
2023/08/07 05:13:02;;;;;;;9.70;2.75;;;;;;;14.45;74.41;101340.00;5070483;28;20361;-76
2023/08/07 05:15:30;;;;;;;6.70;2.30;;;;;;;14.45;74.50;101349.22;5069001;28;20032;-75
2023/08/07 05:17:55;;;;;;;6.38;2.40;;;;;;;14.47;74.62;101355.38;5069905;28;20032;-76
2023/08/07 05:20:21;;;;;;;8.55;2.67;;;;;;;14.49;74.79;101355.13;5066095;28;20106;-76
2023/08/07 05:22:46;;;;;;;10.07;2.30;;;;;;;14.49;74.73;101366.31;5070946;28;20515;-76
2023/08/07 05:25:15;;;;;;;8.85;2.45;;;;;;;14.50;74.48;101368.00;5056754;28;20032;-77
2023/08/07 05:27:41;;;;;;;8.05;2.63;;;;;;;14.51;74.55;101366.91;5062397;28;20112;-76
2023/08/07 05:30:07;;;;;;;8.65;2.55;;;;;;;14.54;74.40;101362.72;5069138;28;20111;-74
2023/08/07 05:32:32;;;;;;;5.35;2.30;;;;;;;14.52;74.39;101367.75;5069910;28;20043;-76
2023/08/07 05:34:58;;;;;;;11.20;2.88;;;;;;;14.45;74.37;101370.72;5067859;28;20016;-74
2023/08/07 05:37:23;;;;;;;9.65;2.50;;;;;;;14.47;74.84;101374.09;5061013;28;20575;-74
2023/08/07 05:39:49;;;;;;;7.65;2.70;;;;;;;14.51;74.80;101385.63;5061285;28;20028;-74
2023/08/07 05:42:14;;;;;;;10.55;3.03;;;;;;;14.51;74.86;101375.28;5061044;28;20613;-76
2023/08/07 05:44:39;;;;;;;7.60;2.60;;;;;;;14.53;74.26;101389.81;5060173;28;20021;-75
2023/08/07 05:47:06;;;;;;;7.88;2.92;;;;;;;14.51;74.25;101394.84;5066573;28;20376;-75
2023/08/07 05:49:31;;;;;;;9.45;2.60;;;;;;;14.51;74.08;101394.00;5067671;28;20090;-74
2023/08/07 05:51:57;;;;;;;9.90;2.35;;;;;;;14.48;74.62;101396.16;5065503;28;20491;-77
2023/08/07 05:54:22;;;;;;;11.85;2.70;;;;;;;14.52;74.24;101398.47;5062181;28;20029;-74
2023/08/07 05:56:47;;;;;;;10.68;2.50;;;;;;;14.48;74.88;101404.53;5067027;28;20036;-73
2023/08/07 05:59:13;;;;;;;10.18;2.67;;;;;;;14.51;74.65;101394.84;5067314;28;20021;-73
2023/08/07 06:01:38;;;;;;;11.13;2.83;;;;;;;14.52;74.75;101398.47;5060477;28;20042;-73
2023/08/07 06:04:03;;;;;;;12.30;2.97;;;;;;;14.52;74.93;101398.47;5053718;28;20105;-73
2023/08/07 06:06:29;;;;;;;9.45;2.58;;;;;;;14.54;74.47;101402.69;5066185;28;20125;-73
2023/08/07 06:08:55;;;;;;;12.52;3.03;;;;;;;14.53;74.53;101405.72;5068730;28;20141;-73
2023/08/07 06:11:20;;;;;;;10.98;3.10;;;;;;;14.52;74.29;101404.06;5063913;28;20079;-71
2023/08/07 06:13:46;;;;;;;8.55;2.78;;;;;;;14.53;74.42;101408.53;5060938;28;20055;-68
2023/08/07 06:16:11;;;;;;;8.55;2.17;;;;;;;14.57;74.03;101404.94;5056712;28;20369;-70
2023/08/07 06:18:36;;;;;;;11.48;2.40;;;;;;;14.61;74.00;101405.25;5064593;28;20029;-74
2023/08/07 06:21:06;;;;;;;10.13;2.95;;;;;;;14.59;74.07;101410.25;5069983;28;20443;-74
2023/08/07 06:23:31;;;;;;;7.60;2.47;;;;;;;14.60;74.49;101406.34;5066551;28;20044;-75
2023/08/07 06:25:57;;;;;;;9.52;2.30;;;;;;;14.69;73.87;101418.72;5063920;28;20055;-74
2023/08/07 06:28:22;;;;;;;10.77;2.53;;;;;;;14.69;73.69;101413.13;5063943;28;20032;-74
2023/08/07 06:30:47;;;;;;;8.43;2.45;;;;;;;14.72;73.06;101412.59;5057217;28;20035;-71
2023/08/07 06:33:13;;;;;;;12.27;2.40;;;;;;;14.77;73.62;101420.19;5062782;28;20028;-69
2023/08/07 06:35:39;;;;;;;10.48;2.75;;;;;;;14.78;73.55;101430.25;5067448;28;20056;-72
2023/08/07 06:38:04;;;;;;;9.50;2.47;;;;;;;14.79;73.04;101437.53;5067477;28;20455;-72
2023/08/07 06:40:30;;;;;;;10.30;2.53;;;;;;;14.77;72.71;101439.72;5063341;28;20899;-72
2023/08/07 06:42:55;;;;;;;9.48;2.38;;;;;;;14.74;72.87;101441.13;5069860;28;20062;-74
2023/08/07 06:45:20;;;;;;;11.50;2.85;;;;;;;14.74;72.61;101435.53;5069441;28;20032;-73
2023/08/07 06:47:46;;;;;;;11.10;2.75;;;;;;;14.69;72.58;101439.09;5056212;28;20150;-72
2023/08/07 06:50:13;;;;;;;11.75;2.78;;;;;;;14.70;72.97;101449.19;5048769;28;20025;-76
2023/08/07 06:52:38;;;;;;;7.22;2.45;;;;;;;14.67;72.66;101446.94;5066665;28;20563;-73
2023/08/07 06:55:04;;;;;;;7.85;2.33;;;;;;;14.68;73.02;101436.59;5069431;28;20101;-75
2023/08/07 06:57:30;;;;;;;12.13;2.53;;;;;;;14.65;72.13;101434.31;5068239;28;20037;-72
2023/08/07 06:59:55;;;;;;;11.27;2.20;;;;;;;14.60;71.93;101434.28;5066588;28;20422;-74
2023/08/07 07:02:21;;;;;;;4.28;1.80;;;;;;;14.64;72.52;101441.03;5067529;28;20043;-73
2023/08/07 07:04:46;;;;;;;8.32;2.35;;;;;;;14.68;72.76;101445.81;5059432;28;20157;-75
2023/08/07 07:07:11;;;;;;;9.75;2.28;;;;;;;14.73;71.95;101445.00;5057727;28;20433;-72
2023/08/07 07:09:36;;;;;;;6.50;2.00;;;;;;;14.77;71.87;101445.31;5070001;28;20506;-75
2023/08/07 07:12:02;;;;;;;10.00;2.47;;;;;;;14.86;71.83;101455.75;5068079;28;20012;-71
2023/08/07 07:14:27;;;;;;;7.72;2.10;;;;;;;14.95;72.44;101451.34;5067093;28;20036;-71
2023/08/07 07:16:53;;;;;;;10.05;2.15;;;;;;;15.08;72.15;101455.63;5052687;28;20041;-71
2023/08/07 07:19:18;;;;;;;8.25;2.20;;;;;;;15.12;72.20;101465.16;5039070;28;20065;-77
2023/08/07 07:21:44;;;;;;;11.10;2.92;;;;;;;15.14;72.11;101468.53;5037716;28;20033;-71
2023/08/07 07:24:09;;;;;;;7.25;1.95;;;;;;;15.17;71.78;101472.78;5044961;28;20112;-70
2023/08/07 07:26:35;;;;;;;8.82;2.95;;;;;;;15.16;71.67;101473.84;5050431;28;20377;-70
2023/08/07 07:29:00;;;;;;;8.05;2.20;;;;;;;15.16;71.91;101473.84;5053246;28;20029;-70
2023/08/07 07:31:26;;;;;;;8.18;1.92;;;;;;;15.16;71.66;101480.28;5047694;28;20018;-72
2023/08/07 07:33:51;;;;;;;11.45;2.60;;;;;;;15.16;71.73;101479.44;5049169;28;20104;-73
2023/08/07 07:36:17;;;;;;;6.82;2.08;;;;;;;15.16;72.41;101483.09;5040336;28;20945;-73
2023/08/07 07:38:43;;;;;;;13.07;2.40;;;;;;;15.17;71.86;101483.97;5034131;28;20104;-73
2023/08/07 07:41:11;;;;;;;8.65;2.78;;;;;;;15.20;72.27;101487.03;5050588;28;20155;-74
2023/08/07 07:43:36;;;;;;;12.98;2.33;;;;;;;15.23;72.04;101483.69;5042200;28;20036;-72
2023/08/07 07:46:02;;;;;;;9.18;1.95;;;;;;;15.28;71.66;101484.84;5043462;28;20029;-76
2023/08/07 07:48:27;;;;;;;10.07;2.50;;;;;;;15.32;71.59;101491.59;5043863;28;20036;-76
2023/08/07 07:50:59;;;;;;;9.38;1.90;;;;;;;15.27;70.21;101489.59;5049258;28;20033;-72
2023/08/07 07:53:24;;;;;;;8.88;2.20;;;;;;;15.25;69.20;101502.16;5038611;28;20294;-74
2023/08/07 07:55:49;;;;;;;6.90;2.30;;;;;;;15.18;70.02;101503.25;5044562;28;20445;-74
2023/08/07 07:58:15;;;;;;;9.27;2.28;;;;;;;15.22;71.09;101503.56;5050829;28;20124;-72
2023/08/07 08:00:40;;;;;;;12.30;2.35;;;;;;;15.23;72.33;101506.06;5045361;28;20041;-67
2023/08/07 08:03:05;;;;;;;11.32;2.00;;;;;;;15.26;72.60;101512.25;5047172;28;20064;-66
2023/08/07 08:05:31;;;;;;;9.48;2.53;;;;;;;15.23;72.58;101505.22;5038472;28;20448;-68
2023/08/07 08:07:57;;;;;;;9.63;2.17;;;;;;;15.28;72.21;101513.66;5040361;28;20040;-67
2023/08/07 08:10:22;;;;;;;9.65;2.33;;;;;;;15.36;71.61;101515.09;5045673;28;20025;-70
2023/08/07 08:12:48;;;;;;;9.40;2.03;;;;;;;15.43;70.71;101515.72;5040929;28;20124;-70
2023/08/07 08:15:13;;;;;;;10.35;2.30;;;;;;;15.49;70.92;101517.44;5044009;28;20086;-71
2023/08/07 08:17:39;;;;;;;11.15;2.63;;;;;;;15.63;71.09;101512.22;5046155;28;20048;-71
2023/08/07 08:20:06;;;;;;;10.63;2.47;;;;;;;15.89;70.55;101518.81;5042625;28;20091;-72
2023/08/07 08:22:31;;;;;;;12.90;3.33;;;;;;;16.22;71.08;101516.72;5044295;28;21507;-67
2023/08/07 08:24:57;;;;;;;9.60;2.35;;;;;;;16.34;67.89;101518.16;5042823;28;20029;-71
2023/08/07 08:27:22;;;;;;;7.45;2.13;;;;;;;16.41;66.56;101515.09;5046341;28;20037;-72
2023/08/07 08:29:48;;;;;;;11.70;2.20;;;;;;;16.46;66.67;101487.06;5046520;28;20033;-76
2023/08/07 08:32:13;;;;;;;7.20;2.00;;;;;;;16.44;64.66;101511.75;5036414;28;20083;-70
2023/08/07 08:34:39;;;;;;;7.60;2.53;;;;;;;16.63;69.22;101509.25;5043511;28;20384;-72
2023/08/07 08:37:07;;;;;;;12.30;3.13;;;;;;;16.81;67.25;101519.13;5042080;28;20060;-73
2023/08/07 08:39:33;;;;;;;10.93;2.78;;;;;;;17.01;67.78;101515.47;5049274;28;20082;-72
2023/08/07 08:41:59;;;;;;;8.20;2.03;;;;;;;17.11;66.57;101521.09;5042027;28;20036;-73
2023/08/07 08:44:26;;;;;;;9.80;2.20;;;;;;;17.21;63.78;101521.09;5034964;28;20025;-71
2023/08/07 08:46:53;;;;;;;8.45;2.50;;;;;;;17.42;63.54;101519.13;5037563;28;20060;-71
2023/08/07 08:49:27;;;;;;;7.50;2.30;;;;;;;17.36;58.80;101532.28;5041447;28;20029;-68
2023/08/07 08:51:53;;;;;;;6.60;2.20;;;;;;;17.26;57.81;101523.91;5040106;28;20043;-71
2023/08/07 08:54:18;;;;;;;5.10;1.88;;;;;;;17.18;57.53;101536.53;5034598;28;20025;-71
2023/08/07 08:56:45;;;;;;;7.47;2.17;;;;;;;17.01;56.22;101535.94;5041279;28;20435;-72
2023/08/07 08:59:10;;;;;;;5.65;1.70;;;;;;;17.02;56.93;101539.63;5046769;28;20033;-70
2023/08/07 09:01:36;;;;;;;4.00;1.60;;;;;;;17.08;56.33;101530.91;5049325;28;20159;-70
2023/08/07 09:04:04;;;;;;;7.32;2.28;;;;;;;17.17;57.03;101531.19;5039920;28;20052;-72
2023/08/07 09:06:31;;;;;;;7.53;2.25;;;;;;;17.27;57.56;101542.41;5034584;28;20503;-73
2023/08/07 09:08:58;;;;;;;5.60;1.70;;;;;;;17.27;56.38;101542.41;5041536;28;20021;-72
2023/08/07 09:11:24;;;;;;;3.88;1.70;;;;;;;17.23;56.49;101546.91;5047769;28;20041;-71
2023/08/07 09:13:50;;;;;;;6.57;1.95;;;;;;;17.14;56.92;101549.44;5048466;28;20028;-72
2023/08/07 09:16:17;;;;;;;5.50;2.05;;;;;;;17.07;57.31;101543.25;5055096;28;20599;-72
2023/08/07 09:18:42;;;;;;;5.47;1.75;;;;;;;17.00;57.73;101545.50;5065340;28;20029;-72
2023/08/07 09:21:08;;;;;;;11.15;2.15;;;;;;;17.03;58.45;101556.16;5063500;28;20033;-70
2023/08/07 09:23:34;;;;;;;6.47;2.00;;;;;;;17.11;58.16;101546.34;5067243;28;20036;-71
2023/08/07 09:26:02;;;;;;;9.25;1.95;;;;;;;17.24;58.93;101551.38;5063376;28;20598;-71
2023/08/07 09:28:28;;;;;;;6.97;1.88;;;;;;;17.35;57.94;101555.03;5063756;28;20562;-70
2023/08/07 09:30:54;;;;;;;7.28;2.35;;;;;;;17.41;57.82;101556.72;5056338;28;20059;-70
2023/08/07 09:33:26;;;;;;;5.72;1.98;;;;;;;17.41;58.14;101554.75;5062824;28;20686;-69
2023/08/07 09:35:52;;;;;;;5.32;1.80;;;;;;;17.44;55.30;101556.13;5053982;28;20024;-69
2023/08/07 09:38:18;;;;;;;8.18;2.30;;;;;;;17.58;58.24;101550.81;5065639;28;20400;-67
2023/08/07 09:40:43;;;;;;;6.30;1.90;;;;;;;17.61;54.77;101544.63;5057285;28;20040;-72
2023/08/07 09:43:10;;;;;;;12.27;2.08;;;;;;;17.70;53.46;101553.31;5059902;28;20472;-72
2023/08/07 09:45:39;;;;;;;4.63;1.60;;;;;;;17.75;51.96;101558.94;5068069;28;20157;-75
2023/08/07 09:48:11;;;;;;;4.82;1.52;;;;;;;17.74;52.52;101549.66;5066166;28;20042;-73
2023/08/07 09:50:36;;;;;;;7.93;2.10;;;;;;;17.74;53.43;101554.41;5063173;28;20035;-70
2023/08/07 09:53:02;;;;;;;7.03;2.10;;;;;;;17.77;53.37;101557.53;5067406;28;20032;-73
2023/08/07 09:55:27;;;;;;;10.02;2.25;;;;;;;17.71;53.30;101571.84;5066431;28;20024;-69
2023/08/07 09:57:53;;;;;;;7.75;2.10;;;;;;;17.75;55.67;101576.63;5057785;28;20033;-71
2023/08/07 10:00:21;;;;;;;7.38;2.00;;;;;;;17.73;53.92;101572.41;5066069;28;20031;-70
2023/08/07 10:02:48;;;;;;;7.95;1.98;;;;;;;17.72;54.87;101565.91;5067580;28;20040;-69
2023/08/07 10:05:14;;;;;;;5.68;1.85;;;;;;;17.72;53.94;101571.53;5067809;28;20024;-73
2023/08/07 10:07:41;;;;;;;7.07;1.77;;;;;;;17.84;53.13;101579.69;5064902;28;20055;-74
2023/08/07 10:10:07;;;;;;;6.25;1.90;;;;;;;17.94;53.66;101585.28;5064536;28;20468;-72
2023/08/07 10:12:33;;;;;;;4.60;1.90;;;;;;;17.93;52.71;101580.81;5059359;28;20610;-73
2023/08/07 10:14:59;;;;;;;7.65;2.20;;;;;;;18.09;53.76;101588.06;5058144;28;20115;-71
2023/08/07 10:17:25;;;;;;;5.57;1.88;;;;;;;18.13;51.10;101586.34;5066279;28;20052;-75
2023/08/07 10:19:51;;;;;;;5.85;1.80;;;;;;;18.19;50.59;101589.97;5067404;28;20036;-75
2023/08/07 10:22:18;;;;;;;7.47;2.30;;;;;;;18.23;49.10;101593.91;5068923;28;20021;-75
2023/08/07 10:24:47;;;;;;;2.63;1.63;;;;;;;18.32;49.28;101591.34;5060032;28;20037;-72
2023/08/07 10:27:16;;;;;;;3.95;1.70;;;;;;;18.29;49.41;101589.13;5052799;28;20119;-73
2023/08/07 10:29:43;;;;;;;4.10;1.42;;;;;;;18.21;49.27;101592.53;5059570;28;20553;-77
2023/08/07 10:32:10;;;;;;;3.67;1.75;;;;;;;18.10;49.87;101586.94;5057444;28;20072;-74
2023/08/07 10:34:37;;;;;;;2.72;1.60;;;;;;;17.99;49.82;101604.09;5049265;28;20040;-72
2023/08/07 10:37:02;;;;;;;4.65;1.80;;;;;;;18.08;51.40;101593.97;5055418;28;20064;-73
2023/08/07 10:39:28;;;;;;;5.07;1.75;;;;;;;18.23;51.85;101602.31;5050335;28;20068;-73
2023/08/07 10:41:54;;;;;;;7.10;2.15;;;;;;;18.25;50.76;101599.25;5059605;28;20107;-72
2023/08/07 10:44:24;;;;;;;4.95;1.90;;;;;;;18.32;49.83;101605.41;5060528;28;20044;-71
2023/08/07 10:46:54;;;;;;;4.47;1.80;;;;;;;18.41;49.40;101609.28;5068078;28;20033;-74
2023/08/07 10:49:33;;;;;;;5.40;2.00;;;;;;;18.56;50.09;101599.97;5056147;28;20036;-73
2023/08/07 10:52:08;;;;;;;5.68;1.80;;;;;;;18.62;48.63;101601.59;5062823;28;20031;-74
2023/08/07 10:54:42;;;;;;;7.32;2.10;;;;;;;18.72;49.77;101597.94;5068506;28;20036;-74
2023/08/07 10:57:11;;;;;;;6.13;1.88;;;;;;;18.79;50.30;101609.72;5057434;28;20089;-75
2023/08/07 10:59:37;;;;;;;5.07;1.70;;;;;;;18.87;50.05;101609.94;5062019;28;20063;-74
2023/08/07 11:02:11;;;;;;;8.38;1.80;;;;;;;18.96;48.23;101598.91;5074943;28;20510;-74
2023/08/07 11:04:36;;;;;;;5.10;1.85;;;;;;;19.05;47.62;101607.56;5065300;28;20040;-76
2023/08/07 11:07:02;;;;;;;4.47;1.77;;;;;;;19.08;47.70;101615.44;5064417;28;20036;-77
2023/08/07 11:09:27;;;;;;;5.93;2.03;;;;;;;19.12;47.03;101608.91;5071452;28;20484;-75
2023/08/07 11:11:53;;;;;;;6.78;1.80;;;;;;;19.18;47.88;101618.19;5070279;28;20431;-76
2023/08/07 11:14:19;;;;;;;4.95;1.75;;;;;;;19.19;46.45;101621.84;5068349;28;20046;-73
2023/08/07 11:16:46;;;;;;;4.82;1.90;;;;;;;19.15;46.34;101617.94;5047070;28;20048;-72